Time;durP1;ratioP1;P1;durP2;ratioP2;P2;SDS_P1;SDS_P2;PMS_P1;PMS_P2;Temp;Humidity;BMP_temperature;BMP_pressure;BME280_temperature;BME280_humidity;BME280_pressure;Samples;Min_cycle;Max_cycle;Signal;HPM_P1;HPM_P2
2023/06/06 00:01:49;;;;;;;;;;;;;;;;;;5074395;28;19920;-69
2023/06/06 00:04:14;;;;;;;;;;;;;;;;;;5074389;28;19919;-69
2023/06/06 00:06:44;;;;;;;;;;;;;;;;;;5056376;28;20283;-69
2023/06/06 00:09:09;;;;;;;;;;;;;;;;;;5056526;28;19912;-71
2023/06/06 00:11:35;;;;;;;;;;;;;;;;;;5074091;28;19916;-70
2023/06/06 00:14:01;;;;;;;;;;;;;;;;;;5073991;28;19916;-70
2023/06/06 00:16:32;;;;;;;;;;;;;;;;;;5056493;28;20283;-69
2023/06/06 00:18:58;;;;;;;;;;;;;;;;;;5074150;28;19923;-69
2023/06/06 00:21:24;;;;;;;;;;;;;;;;;;5073897;28;20291;-69
2023/06/06 00:23:50;;;;;;;;;;;;;;;;;;5089723;28;20260;-69
2023/06/06 00:26:15;;;;;;;;;;;;;;;;;;5073835;28;19961;-70
2023/06/06 00:28:43;;;;;;;;;;;;;;;;;;5089630;28;20415;-68
2023/06/06 00:31:09;;;;;;;;;;;;;;;;;;5073823;28;19916;-67
2023/06/06 00:33:34;;;;;;;;;;;;;;;;;;5073728;28;19919;-68
2023/06/06 00:35:59;;;;;;;;;;;;;;;;;;5056164;28;19918;-68
2023/06/06 00:38:25;;;;;;;;;;;;;;;;;;5076208;28;19913;-68
2023/06/06 00:40:50;;;;;;;;;;;;;;;;;;5072154;28;19912;-69
2023/06/06 00:43:15;;;;;;;;;;;;;;;;;;5055029;28;20041;-69
2023/06/06 00:45:40;;;;;;;;;;;;;;;;;;5055174;28;19908;-68
2023/06/06 00:48:06;;;;;;;;;;;;;;;;;;5069985;28;19924;-69
2023/06/06 00:50:32;;;;;;;;;;;;;;;;;;5061774;28;19960;-68
2023/06/06 00:52:58;;;;;;;;;;;;;;;;;;5061107;28;19999;-69
2023/06/06 00:55:23;;;;;;;;;;;;;;;;;;5059931;28;20020;-71
2023/06/06 00:57:51;;;;;;;;;;;;;;;;;;5045842;28;19920;-70
2023/06/06 01:00:17;;;;;;;;;;;;;;;;;;5047017;28;19912;-69
2023/06/06 01:02:43;;;;;;;;;;;;;;;;;;5072116;28;19951;-69
2023/06/06 01:05:09;;;;;;;;;;;;;;;;;;5039083;28;19912;-69
2023/06/06 01:07:35;;;;;;;;;;;;;;;;;;5055437;28;20015;-69
2023/06/06 01:10:00;;;;;;;;;;;;;;;;;;5073191;28;19977;-70
2023/06/06 01:12:25;;;;;;;;;;;;;;;;;;5055082;28;20011;-69
2023/06/06 01:14:51;;;;;;;;;;;;;;;;;;5055275;28;20363;-69
2023/06/06 01:17:18;;;;;;;;;;;;;;;;;;5055314;28;20001;-70
2023/06/06 01:19:47;;;;;;;;;;;;;;;;;;5073061;28;19978;-70
2023/06/06 01:22:13;;;;;;;;;;;;;;;;;;5073063;28;19913;-70
2023/06/06 01:24:38;;;;;;;;;;;;;;;;;;5073119;28;19904;-69
2023/06/06 01:27:03;;;;;;;;;;;;;;;;;;5072910;28;20399;-70
2023/06/06 01:29:29;;;;;;;;;;;;;;;;;;5073150;28;19999;-70
2023/06/06 01:31:54;;;;;;;;;;;;;;;;;;5055422;28;19954;-70
2023/06/06 01:34:19;;;;;;;;;;;;;;;;;;5072936;28;20299;-69
2023/06/06 01:36:44;;;;;;;;;;;;;;;;;;5055075;28;20282;-69
2023/06/06 01:39:10;;;;;;;;;;;;;;;;;;5073074;28;19913;-70
2023/06/06 01:41:35;;;;;;;;;;;;;;;;;;5054909;28;19966;-70
2023/06/06 01:44:01;;;;;;;;;;;;;;;;;;5054989;28;19965;-70
2023/06/06 01:46:27;;;;;;;;;;;;;;;;;;5038246;28;19921;-70
2023/06/06 01:48:52;;;;;;;;;;;;;;;;;;5038355;28;19908;-69
2023/06/06 01:51:18;;;;;;;;;;;;;;;;;;5072810;28;19961;-68
2023/06/06 01:53:43;;;;;;;;;;;;;;;;;;5055072;28;19912;-69
2023/06/06 01:56:13;;;;;;;;;;;;;;;;;;5053498;28;19919;-69
2023/06/06 01:58:39;;;;;;;;;;;;;;;;;;5054756;28;19912;-69
2023/06/06 02:01:06;;;;;;;;;;;;;;;;;;5038236;28;20374;-68
2023/06/06 02:03:31;;;;;;;;;;;;;;;;;;5054833;28;19912;-69
2023/06/06 02:05:57;;;;;;;;;;;;;;;;;;5037529;28;19916;-68
2023/06/06 02:08:22;;;;;;;;;;;;;;;;;;5072368;28;19952;-69
2023/06/06 02:10:47;;;;;;;;;;;;;;;;;;5054479;28;19924;-69
2023/06/06 02:13:12;;;;;;;;;;;;;;;;;;5072514;28;20007;-68
2023/06/06 02:15:38;;;;;;;;;;;;;;;;;;5054782;28;19912;-68
2023/06/06 02:18:03;;;;;;;;;;;;;;;;;;5072426;28;19987;-68
2023/06/06 02:20:29;;;;;;;;;;;;;;;;;;5054514;28;19940;-70
2023/06/06 02:22:55;;;;;;;;;;;;;;;;;;5072617;28;19963;-68
2023/06/06 02:25:23;;;;;;;;;;;;;;;;;;5072230;28;20399;-68
2023/06/06 02:27:49;;;;;;;;;;;;;;;;;;5054364;28;19922;-69
2023/06/06 02:30:15;;;;;;;;;;;;;;;;;;5037850;28;19917;-70
2023/06/06 02:32:41;;;;;;;;;;;;;;;;;;5072291;28;20000;-69
2023/06/06 02:35:07;;;;;;;;;;;;;;;;;;5072213;28;20007;-69
2023/06/06 02:37:35;;;;;;;;;;;;;;;;;;5054320;28;20383;-67
2023/06/06 02:40:10;;;;;;;;;;;;;;;;;;5072088;28;19919;-69
2023/06/06 02:42:38;;;;;;;;;;;;;;;;;;5021179;28;19919;-68
2023/06/06 02:45:03;;;;;;;;;;;;;;;;;;5034395;28;20379;-70
2023/06/06 02:47:28;;;;;;;;;;;;;;;;;;5054385;28;19917;-69
2023/06/06 02:49:54;;;;;;;;;;;;;;;;;;5054303;28;19912;-68
2023/06/06 02:52:21;;;;;;;;;;;;;;;;;;5072006;28;19916;-68
2023/06/06 02:54:47;;;;;;;;;;;;;;;;;;5053967;28;19919;-68
2023/06/06 02:57:12;;;;;;;;;;;;;;;;;;5071948;28;19912;-68
2023/06/06 02:59:37;;;;;;;;;;;;;;;;;;5054239;28;19935;-68
2023/06/06 03:02:03;;;;;;;;;;;;;;;;;;5051820;28;19919;-69
2023/06/06 03:04:28;;;;;;;;;;;;;;;;;;5049197;28;19965;-68
2023/06/06 03:06:53;;;;;;;;;;;;;;;;;;5048758;28;20275;-72
2023/06/06 03:09:19;;;;;;;;;;;;;;;;;;5053695;28;19919;-68
2023/06/06 03:11:44;;;;;;;;;;;;;;;;;;5054268;28;20332;-70
2023/06/06 03:14:10;;;;;;;;;;;;;;;;;;5053596;28;19912;-71
2023/06/06 03:16:39;;;;;;;;;;;;;;;;;;5053426;28;20359;-68
2023/06/06 03:19:05;;;;;;;;;;;;;;;;;;5052857;28;20379;-68
2023/06/06 03:21:33;;;;;;;;;;;;;;;;;;5053373;28;20006;-69
2023/06/06 03:23:58;;;;;;;;;;;;;;;;;;5071207;28;20252;-69
2023/06/06 03:26:26;;;;;;;;;;;;;;;;;;5052825;28;19920;-70
2023/06/06 03:28:53;;;;;;;;;;;;;;;;;;5069624;28;19920;-69
2023/06/06 03:31:23;;;;;;;;;;;;;;;;;;5051284;28;19912;-70
2023/06/06 03:33:49;;;;;;;;;;;;;;;;;;5053110;28;20611;-70
2023/06/06 03:36:14;;;;;;;;;;;;;;;;;;5053009;28;20002;-70
2023/06/06 03:38:40;;;;;;;;;;;;;;;;;;5054348;28;19917;-71
2023/06/06 03:41:05;;;;;;;;;;;;;;;;;;5070882;28;19916;-69
2023/06/06 03:43:32;;;;;;;;;;;;;;;;;;5052625;28;19913;-71
2023/06/06 03:45:57;;;;;;;;;;;;;;;;;;5038295;28;19923;-69
2023/06/06 03:48:23;;;;;;;;;;;;;;;;;;5054289;28;19999;-69
2023/06/06 03:50:48;;;;;;;;;;;;;;;;;;5052788;28;20010;-74
2023/06/06 03:53:13;;;;;;;;;;;;;;;;;;5063635;28;20009;-69
2023/06/06 03:55:39;;;;;;;;;;;;;;;;;;5052175;28;20267;-70
2023/06/06 03:58:04;;;;;;;;;;;;;;;;;;5070713;28;19916;-69
2023/06/06 04:00:30;;;;;;;;;;;;;;;;;;5050166;28;20340;-74
2023/06/06 04:02:56;;;;;;;;;;;;;;;;;;5068531;28;19919;-70
2023/06/06 04:05:21;;;;;;;;;;;;;;;;;;5048224;28;20823;-73
2023/06/06 04:07:46;;;;;;;;;;;;;;;;;;5032055;28;20016;-69
2023/06/06 04:10:11;;;;;;;;;;;;;;;;;;5032171;28;19913;-68
2023/06/06 04:12:38;;;;;;;;;;;;;;;;;;5063152;28;19912;-70
2023/06/06 04:15:03;;;;;;;;;;;;;;;;;;5042950;28;19912;-70
2023/06/06 04:17:28;;;;;;;;;;;;;;;;;;5071164;28;19919;-69
2023/06/06 04:19:55;;;;;;;;;;;;;;;;;;5031410;28;20276;-70
2023/06/06 04:22:22;;;;;;;;;;;;;;;;;;5031859;28;19939;-70
2023/06/06 04:24:49;;;;;;;;;;;;;;;;;;5048671;28;19913;-70
2023/06/06 04:27:16;;;;;;;;;;;;;;;;;;5050183;28;19939;-69
2023/06/06 04:29:42;;;;;;;;;;;;;;;;;;5050154;28;19912;-69
2023/06/06 04:32:09;;;;;;;;;;;;;;;;;;5037174;28;20035;-69
2023/06/06 04:34:35;;;;;;;;;;;;;;;;;;5038834;28;20407;-70
2023/06/06 04:37:04;;;;;;;;;;;;;;;;;;5064840;28;19912;-69
2023/06/06 04:39:30;;;;;;;;;;;;;;;;;;5051411;28;19914;-70
2023/06/06 04:41:56;;;;;;;;;;;;;;;;;;5047754;28;20003;-69
2023/06/06 04:44:23;;;;;;;;;;;;;;;;;;5045077;28;19908;-69
2023/06/06 04:46:51;;;;;;;;;;;;;;;;;;5049870;28;19916;-74
2023/06/06 04:49:19;;;;;;;;;;;;;;;;;;5068201;28;19913;-70
2023/06/06 04:51:44;;;;;;;;;;;;;;;;;;5050525;28;19912;-70
2023/06/06 04:54:10;;;;;;;;;;;;;;;;;;5067525;28;19912;-69
2023/06/06 04:56:35;;;;;;;;;;;;;;;;;;5080469;28;19968;-71
2023/06/06 04:59:05;;;;;;;;;;;;;;;;;;5069220;28;19916;-73
2023/06/06 05:01:31;;;;;;;;;;;;;;;;;;5066980;28;19912;-71
2023/06/06 05:03:56;;;;;;;;;;;;;;;;;;5066537;28;19912;-71
2023/06/06 05:06:21;;;;;;;;;;;;;;;;;;5047660;28;19919;-71
2023/06/06 05:08:46;;;;;;;;;;;;;;;;;;5049399;28;19922;-71
2023/06/06 05:11:12;;;;;;;;;;;;;;;;;;5062678;28;20434;-71
2023/06/06 05:13:37;;;;;;;;;;;;;;;;;;5067275;28;19916;-70
2023/06/06 05:16:03;;;;;;;;;;;;;;;;;;5068615;28;19932;-69
2023/06/06 05:18:28;;;;;;;;;;;;;;;;;;5069330;28;19917;-70
2023/06/06 05:20:53;;;;;;;;;;;;;;;;;;5049089;28;20583;-74
2023/06/06 05:23:18;;;;;;;;;;;;;;;;;;5064266;28;19917;-69
2023/06/06 05:25:44;;;;;;;;;;;;;;;;;;5063613;28;19919;-70
2023/06/06 05:28:11;;;;;;;;;;;;;;;;;;5065715;28;19920;-71
2023/06/06 05:30:36;;;;;;;;;;;;;;;;;;5061263;28;19965;-71
2023/06/06 05:33:02;;;;;;;;;;;;;;;;;;5060056;28;20360;-73
2023/06/06 05:35:27;;;;;;;;;;;;;;;;;;5065714;28;19955;-69
2023/06/06 05:37:52;;;;;;;;;;;;;;;;;;5056591;28;19917;-69
2023/06/06 05:40:18;;;;;;;;;;;;;;;;;;5049024;28;19999;-69
2023/06/06 05:42:43;;;;;;;;;;;;;;;;;;5031067;28;20362;-70
2023/06/06 05:45:08;;;;;;;;;;;;;;;;;;5065885;28;19912;-72
2023/06/06 05:47:34;;;;;;;;;;;;;;;;;;5064096;28;19917;-71
2023/06/06 05:49:59;;;;;;;;;;;;;;;;;;5068538;28;20364;-71
2023/06/06 05:52:26;;;;;;;;;;;;;;;;;;5067613;28;20005;-70
2023/06/06 05:54:51;;;;;;;;;;;;;;;;;;5050492;28;20026;-69
2023/06/06 05:57:16;;;;;;;;;;;;;;;;;;5067958;28;20003;-71
2023/06/06 05:59:41;;;;;;;;;;;;;;;;;;5049990;28;20357;-71
2023/06/06 06:02:07;;;;;;;;;;;;;;;;;;5048953;28;19920;-73
2023/06/06 06:04:32;;;;;;;;;;;;;;;;;;5067510;28;19919;-70
2023/06/06 06:06:57;;;;;;;;;;;;;;;;;;5067261;28;19946;-70
2023/06/06 06:09:22;;;;;;;;;;;;;;;;;;5068327;28;20427;-69
2023/06/06 06:11:48;;;;;;;;;;;;;;;;;;5033395;28;19912;-69
2023/06/06 06:14:13;;;;;;;;;;;;;;;;;;5067719;28;19912;-71
2023/06/06 06:16:38;;;;;;;;;;;;;;;;;;5068361;28;20231;-70
2023/06/06 06:19:05;;;;;;;;;;;;;;;;;;5068334;28;19931;-70
2023/06/06 06:21:30;;;;;;;;;;;;;;;;;;5068304;28;20331;-70
2023/06/06 06:23:56;;;;;;;;;;;;;;;;;;5068236;28;20006;-71
2023/06/06 06:26:21;;;;;;;;;;;;;;;;;;5042503;28;19921;-70
2023/06/06 06:28:46;;;;;;;;;;;;;;;;;;5061160;28;20007;-69
2023/06/06 06:31:12;;;;;;;;;;;;;;;;;;5068244;28;20287;-69
2023/06/06 06:33:37;;;;;;;;;;;;;;;;;;5067197;28;20401;-69
2023/06/06 06:36:03;;;;;;;;;;;;;;;;;;5049496;28;19971;-70
2023/06/06 06:38:29;;;;;;;;;;;;;;;;;;5049562;28;19952;-71
2023/06/06 06:40:55;;;;;;;;;;;;;;;;;;5068230;28;19916;-69
2023/06/06 06:43:20;;;;;;;;;;;;;;;;;;5052437;28;19973;-70
2023/06/06 06:45:52;;;;;;;;;;;;;;;;;;5023249;28;19908;-70
2023/06/06 06:48:18;;;;;;;;;;;;;;;;;;5033179;28;19921;-70
2023/06/06 06:50:44;;;;;;;;;;;;;;;;;;5065359;28;19919;-70
2023/06/06 06:53:12;;;;;;;;;;;;;;;;;;5070924;28;19922;-69
2023/06/06 06:55:38;;;;;;;;;;;;;;;;;;5070446;28;20031;-70
2023/06/06 06:58:03;;;;;;;;;;;;;;;;;;5069062;28;20003;-70
2023/06/06 07:00:29;;;;;;;;;;;;;;;;;;5069400;28;19916;-71
2023/06/06 07:02:57;;;;;;;;;;;;;;;;;;5050708;28;20127;-69
2023/06/06 07:05:23;;;;;;;;;;;;;;;;;;5050991;28;19920;-71
2023/06/06 07:07:49;;;;;;;;;;;;;;;;;;5069588;28;19931;-69
2023/06/06 07:10:15;;;;;;;;;;;;;;;;;;5070450;28;19912;-71
2023/06/06 07:12:40;;;;;;;;;;;;;;;;;;5071358;28;20054;-69
2023/06/06 07:15:05;;;;;;;;;;;;;;;;;;5071162;28;19912;-69
2023/06/06 07:17:31;;;;;;;;;;;;;;;;;;5069933;28;19913;-70
2023/06/06 07:19:56;;;;;;;;;;;;;;;;;;5071030;28;19908;-69
2023/06/06 07:22:21;;;;;;;;;;;;;;;;;;5067745;28;20253;-70
2023/06/06 07:24:47;;;;;;;;;;;;;;;;;;5052290;28;19935;-70
2023/06/06 07:27:15;;;;;;;;;;;;;;;;;;5023592;28;20011;-68
2023/06/06 07:29:40;;;;;;;;;;;;;;;;;;5060779;28;19912;-71
2023/06/06 07:32:06;;;;;;;;;;;;;;;;;;5040578;28;19923;-70
2023/06/06 07:34:31;;;;;;;;;;;;;;;;;;5073042;28;19916;-68
2023/06/06 07:36:58;;;;;;;;;;;;;;;;;;5069550;28;19934;-68
2023/06/06 07:39:23;;;;;;;;;;;;;;;;;;5070333;28;20415;-70
2023/06/06 07:41:48;;;;;;;;;;;;;;;;;;5070965;28;20012;-70
2023/06/06 07:44:16;;;;;;;;;;;;;;;;;;5063741;28;20382;-71
2023/06/06 07:46:41;;;;;;;;;;;;;;;;;;5054358;28;20023;-70
2023/06/06 07:49:06;;;;;;;;;;;;;;;;;;5063197;28;20334;-70
2023/06/06 07:51:31;;;;;;;;;;;;;;;;;;5063219;28;19916;-71
2023/06/06 07:53:57;;;;;;;;;;;;;;;;;;5074912;28;20299;-71
2023/06/06 07:56:23;;;;;;;;;;;;;;;;;;5051342;28;20284;-70
2023/06/06 07:58:53;;;;;;;;;;;;;;;;;;5063610;28;19991;-70
2023/06/06 08:01:21;;;;;;;;;;;;;;;;;;5069676;28;20007;-70
2023/06/06 08:03:49;;;;;;;;;;;;;;;;;;5059916;28;19999;-69
2023/06/06 08:06:14;;;;;;;;;;;;;;;;;;5072366;28;19912;-68
2023/06/06 08:08:40;;;;;;;;;;;;;;;;;;5070000;28;19917;-70
2023/06/06 08:11:05;;;;;;;;;;;;;;;;;;5068294;28;19947;-71
2023/06/06 08:13:30;;;;;;;;;;;;;;;;;;5067899;28;19915;-72
2023/06/06 08:15:56;;;;;;;;;;;;;;;;;;5050283;28;20187;-70
2023/06/06 08:18:21;;;;;;;;;;;;;;;;;;5067619;28;20322;-71
2023/06/06 08:20:46;;;;;;;;;;;;;;;;;;5067371;28;20374;-72
2023/06/06 08:23:11;;;;;;;;;;;;;;;;;;5068123;28;20423;-70
2023/06/06 08:25:37;;;;;;;;;;;;;;;;;;5067742;28;19928;-71
2023/06/06 08:28:02;;;;;;;;;;;;;;;;;;5067342;28;20291;-69
2023/06/06 08:30:27;;;;;;;;;;;;;;;;;;5067806;28;20287;-71
2023/06/06 08:32:52;;;;;;;;;;;;;;;;;;5067145;28;19920;-71
2023/06/06 08:35:19;;;;;;;;;;;;;;;;;;5067687;28;19923;-72
2023/06/06 08:37:45;;;;;;;;;;;;;;;;;;5067934;28;19923;-72
2023/06/06 08:40:11;;;;;;;;;;;;;;;;;;5067471;28;19904;-73
2023/06/06 08:42:36;;;;;;;;;;;;;;;;;;5067594;28;19916;-73
2023/06/06 08:45:03;;;;;;;;;;;;;;;;;;5067226;28;19916;-72
2023/06/06 08:47:28;;;;;;;;;;;;;;;;;;5067545;28;19924;-73
2023/06/06 08:49:53;;;;;;;;;;;;;;;;;;5067200;28;19919;-73
2023/06/06 08:52:18;;;;;;;;;;;;;;;;;;5066889;28;19916;-76
2023/06/06 08:54:44;;;;;;;;;;;;;;;;;;5067293;28;20322;-73
2023/06/06 08:57:09;;;;;;;;;;;;;;;;;;5066573;28;19926;-71
2023/06/06 08:59:34;;;;;;;;;;;;;;;;;;5066875;28;19916;-74
2023/06/06 09:02:00;;;;;;;;;;;;;;;;;;5067119;28;19912;-72
2023/06/06 09:04:25;;;;;;;;;;;;;;;;;;5066551;28;20021;-72
2023/06/06 09:06:56;;;;;;;;;;;;;;;;;;5066168;28;19916;-73
2023/06/06 09:09:22;;;;;;;;;;;;;;;;;;5066039;28;20418;-71
2023/06/06 09:11:47;;;;;;;;;;;;;;;;;;5068859;28;19923;-73
2023/06/06 09:14:12;;;;;;;;;;;;;;;;;;5069062;28;19986;-72
2023/06/06 09:16:37;;;;;;;;;;;;;;;;;;5049595;28;20003;-72
2023/06/06 09:19:03;;;;;;;;;;;;;;;;;;5048977;28;19908;-72
2023/06/06 09:21:29;;;;;;;;;;;;;;;;;;5066164;28;19942;-73
2023/06/06 09:23:54;;;;;;;;;;;;;;;;;;5066470;28;19920;-73
2023/06/06 09:26:20;;;;;;;;;;;;;;;;;;5066463;28;20276;-72
2023/06/06 09:28:45;;;;;;;;;;;;;;;;;;5066640;28;19916;-72
2023/06/06 09:31:11;;;;;;;;;;;;;;;;;;5066888;28;20396;-72
2023/06/06 09:33:36;;;;;;;;;;;;;;;;;;5066570;28;19920;-73
2023/06/06 09:36:01;;;;;;;;;;;;;;;;;;5066385;28;19909;-73
2023/06/06 09:38:28;;;;;;;;;;;;;;;;;;5066748;28;20054;-73
2023/06/06 09:40:54;;;;;;;;;;;;;;;;;;5066999;28;20011;-73
2023/06/06 09:43:20;;;;;;;;;;;;;;;;;;5065687;28;19999;-74
2023/06/06 09:45:45;;;;;;;;;;;;;;;;;;5066901;28;20353;-73
2023/06/06 09:48:10;;;;;;;;;;;;;;;;;;5068224;28;19912;-72
2023/06/06 09:50:36;;;;;;;;;;;;;;;;;;5068123;28;19961;-73
2023/06/06 09:53:01;;;;;;;;;;;;;;;;;;5070424;28;20279;-72
2023/06/06 09:55:26;;;;;;;;;;;;;;;;;;5071841;28;19912;-74
2023/06/06 09:57:53;;;;;;;;;;;;;;;;;;5068107;28;20383;-72
2023/06/06 10:00:18;;;;;;;;;;;;;;;;;;5068664;28;19916;-72
2023/06/06 10:02:43;;;;;;;;;;;;;;;;;;5068433;28;19970;-73
2023/06/06 10:05:10;;;;;;;;;;;;;;;;;;5067429;28;19916;-73
2023/06/06 10:07:36;;;;;;;;;;;;;;;;;;5049918;28;19920;-73
2023/06/06 10:10:01;;;;;;;;;;;;;;;;;;5070776;28;19938;-74
2023/06/06 10:12:26;;;;;;;;;;;;;;;;;;5067800;28;19915;-73
2023/06/06 10:14:52;;;;;;;;;;;;;;;;;;5068481;28;20287;-73
2023/06/06 10:17:18;;;;;;;;;;;;;;;;;;5068845;28;19999;-73
2023/06/06 10:19:43;;;;;;;;;;;;;;;;;;5071420;28;20002;-74
2023/06/06 10:22:08;;;;;;;;;;;;;;;;;;5071249;28;20271;-73
2023/06/06 10:24:33;;;;;;;;;;;;;;;;;;5070496;28;19952;-73
2023/06/06 10:26:59;;;;;;;;;;;;;;;;;;5070060;28;19923;-73
2023/06/06 10:29:24;;;;;;;;;;;;;;;;;;5071847;28;20021;-72
2023/06/06 10:31:50;;;;;;;;;;;;;;;;;;5077342;28;20431;-74
2023/06/06 10:34:15;;;;;;;;;;;;;;;;;;5073180;28;20022;-72
2023/06/06 10:36:40;;;;;;;;;;;;;;;;;;5076157;28;19912;-73
2023/06/06 10:39:05;;;;;;;;;;;;;;;;;;5082472;28;19922;-73
2023/06/06 10:41:31;;;;;;;;;;;;;;;;;;5082286;28;20430;-73
2023/06/06 10:43:56;;;;;;;;;;;;;;;;;;5071422;28;19915;-72
2023/06/06 10:46:21;;;;;;;;;;;;;;;;;;5071248;28;20068;-72
2023/06/06 10:48:48;;;;;;;;;;;;;;;;;;5071513;28;19916;-73
2023/06/06 10:51:14;;;;;;;;;;;;;;;;;;5055057;28;19938;-74
2023/06/06 10:53:39;;;;;;;;;;;;;;;;;;5071053;28;19920;-73
2023/06/06 10:56:04;;;;;;;;;;;;;;;;;;5071125;28;19998;-73
2023/06/06 10:58:30;;;;;;;;;;;;;;;;;;5076177;28;20276;-73
2023/06/06 11:00:55;;;;;;;;;;;;;;;;;;5073000;28;19913;-72
2023/06/06 11:03:21;;;;;;;;;;;;;;;;;;5070901;28;19923;-74
2023/06/06 11:05:46;;;;;;;;;;;;;;;;;;5069664;28;19999;-73
2023/06/06 11:08:12;;;;;;;;;;;;;;;;;;5050682;28;20020;-73
2023/06/06 11:10:37;;;;;;;;;;;;;;;;;;5069113;28;19923;-72
2023/06/06 11:13:02;;;;;;;;;;;;;;;;;;5069103;28;19909;-71
2023/06/06 11:15:28;;;;;;;;;;;;;;;;;;5051127;28;19908;-74
2023/06/06 11:17:53;;;;;;;;;;;;;;;;;;5069092;28;20062;-73
2023/06/06 11:20:19;;;;;;;;;;;;;;;;;;5068524;28;20084;-72
2023/06/06 11:22:44;;;;;;;;;;;;;;;;;;5051139;28;20342;-72
2023/06/06 11:25:10;;;;;;;;;;;;;;;;;;5070986;28;19913;-75
2023/06/06 11:27:35;;;;;;;;;;;;;;;;;;5052534;28;20039;-72
2023/06/06 11:30:00;;;;;;;;;;;;;;;;;;5068883;28;20387;-72
2023/06/06 11:32:26;;;;;;;;;;;;;;;;;;5070939;28;20367;-72
2023/06/06 11:34:51;;;;;;;;;;;;;;;;;;5070412;28;19963;-72
2023/06/06 11:37:16;;;;;;;;;;;;;;;;;;5070123;28;19913;-74
2023/06/06 11:39:42;;;;;;;;;;;;;;;;;;5070531;28;19908;-73
2023/06/06 11:42:07;;;;;;;;;;;;;;;;;;5070426;28;19916;-73
2023/06/06 11:44:33;;;;;;;;;;;;;;;;;;5070253;28;19999;-74
2023/06/06 11:46:58;;;;;;;;;;;;;;;;;;5070318;28;19916;-73
2023/06/06 11:49:23;;;;;;;;;;;;;;;;;;5070575;28;19912;-72
2023/06/06 11:51:49;;;;;;;;;;;;;;;;;;5070281;28;20294;-73
2023/06/06 11:54:17;;;;;;;;;;;;;;;;;;5070091;28;19920;-76
2023/06/06 11:56:42;;;;;;;;;;;;;;;;;;5052196;28;19913;-72
2023/06/06 11:59:08;;;;;;;;;;;;;;;;;;5070322;28;20319;-72
2023/06/06 12:01:33;;;;;;;;;;;;;;;;;;5070042;28;19912;-72
2023/06/06 12:03:59;;;;;;;;;;;;;;;;;;5070102;28;19909;-74
2023/06/06 12:06:24;;;;;;;;;;;;;;;;;;5069573;28;19912;-73
2023/06/06 12:08:50;;;;;;;;;;;;;;;;;;5071215;28;19930;-72
2023/06/06 12:11:15;;;;;;;;;;;;;;;;;;5069326;28;20356;-72
2023/06/06 12:13:40;;;;;;;;;;;;;;;;;;5070096;28;19924;-72
2023/06/06 12:16:05;;;;;;;;;;;;;;;;;;5068742;28;19912;-74
2023/06/06 12:18:31;;;;;;;;;;;;;;;;;;5075063;28;19908;-73
2023/06/06 12:20:56;;;;;;;;;;;;;;;;;;5069858;28;19912;-73
2023/06/06 12:23:21;;;;;;;;;;;;;;;;;;5069358;28;19999;-74
2023/06/06 12:25:47;;;;;;;;;;;;;;;;;;5068994;28;20458;-72
2023/06/06 12:28:12;;;;;;;;;;;;;;;;;;5068893;28;19962;-72
2023/06/06 12:30:38;;;;;;;;;;;;;;;;;;5068502;28;19921;-71
2023/06/06 12:33:04;;;;;;;;;;;;;;;;;;5069694;28;19971;-72
2023/06/06 12:35:29;;;;;;;;;;;;;;;;;;5069613;28;20375;-74
2023/06/06 12:37:58;;;;;;;;;;;;;;;;;;5068080;28;20372;-73
2023/06/06 12:40:27;;;;;;;;;;;;;;;;;;5068439;28;19912;-72
2023/06/06 12:42:52;;;;;;;;;;;;;;;;;;5068361;28;19916;-72
2023/06/06 12:45:17;;;;;;;;;;;;;;;;;;5069462;28;19920;-71
2023/06/06 12:47:42;;;;;;;;;;;;;;;;;;5069295;28;20367;-72
2023/06/06 12:50:07;;;;;;;;;;;;;;;;;;5069263;28;19935;-72
2023/06/06 12:52:33;;;;;;;;;;;;;;;;;;5069239;28;19999;-73
2023/06/06 12:54:58;;;;;;;;;;;;;;;;;;5068170;28;19920;-73
2023/06/06 12:57:23;;;;;;;;;;;;;;;;;;5069608;28;19912;-72
2023/06/06 12:59:49;;;;;;;;;;;;;;;;;;5069091;28;19908;-71
2023/06/06 13:02:15;;;;;;;;;;;;;;;;;;5069068;28;19908;-73
2023/06/06 13:04:40;;;;;;;;;;;;;;;;;;5068685;28;19909;-73
2023/06/06 13:07:05;;;;;;;;;;;;;;;;;;5068788;28;20322;-73
2023/06/06 13:09:31;;;;;;;;;;;;;;;;;;5068817;28;20367;-71
2023/06/06 13:11:56;;;;;;;;;;;;;;;;;;5069027;28;19937;-73
2023/06/06 13:14:22;;;;;;;;;;;;;;;;;;5074130;28;20050;-72
2023/06/06 13:16:47;;;;;;;;;;;;;;;;;;5086378;28;20049;-73
2023/06/06 13:19:12;;;;;;;;;;;;;;;;;;5086757;28;20275;-73
2023/06/06 13:21:37;;;;;;;;;;;;;;;;;;5051087;28;19969;-72
2023/06/06 13:24:03;;;;;;;;;;;;;;;;;;5068449;28;19912;-76
2023/06/06 13:26:28;;;;;;;;;;;;;;;;;;5068207;28;20291;-72
2023/06/06 13:28:54;;;;;;;;;;;;;;;;;;5068573;28;19928;-72
2023/06/06 13:31:19;;;;;;;;;;;;;;;;;;5068615;28;19919;-75
2023/06/06 13:33:45;;;;;;;;;;;;;;;;;;5068500;28;20253;-73
2023/06/06 13:36:10;;;;;;;;;;;;;;;;;;5068408;28;19912;-73
2023/06/06 13:38:35;;;;;;;;;;;;;;;;;;5068493;28;19947;-74
2023/06/06 13:41:00;;;;;;;;;;;;;;;;;;5068994;28;19916;-72
2023/06/06 13:43:26;;;;;;;;;;;;;;;;;;5068417;28;19934;-75
2023/06/06 13:45:51;;;;;;;;;;;;;;;;;;5068335;28;19983;-75
2023/06/06 13:48:16;;;;;;;;;;;;;;;;;;5067050;28;19917;-74
2023/06/06 13:50:41;;;;;;;;;;;;;;;;;;5061813;28;19913;-72
2023/06/06 13:53:07;;;;;;;;;;;;;;;;;;5055927;28;20303;-74
2023/06/06 13:55:32;;;;;;;;;;;;;;;;;;5068389;28;19916;-72
2023/06/06 13:57:58;;;;;;;;;;;;;;;;;;5068267;28;19969;-74
2023/06/06 14:00:23;;;;;;;;;;;;;;;;;;5068306;28;19934;-74
2023/06/06 14:02:49;;;;;;;;;;;;;;;;;;5068660;28;19913;-72
2023/06/06 14:05:14;;;;;;;;;;;;;;;;;;5068286;28;19919;-72
2023/06/06 14:07:39;;;;;;;;;;;;;;;;;;5067791;28;19927;-75
2023/06/06 14:10:05;;;;;;;;;;;;;;;;;;5067597;28;19931;-73
2023/06/06 14:12:31;;;;;;;;;;;;;;;;;;5072254;28;20275;-73
2023/06/06 14:14:56;;;;;;;;;;;;;;;;;;5067958;28;19912;-74
2023/06/06 14:17:22;;;;;;;;;;;;;;;;;;5050972;28;19924;-74
2023/06/06 14:19:51;;;;;;;;;;;;;;;;;;5071235;28;19928;-73
2023/06/06 14:22:33;;;;;;;;;;;;;;;;;;5072187;28;19912;-74
2023/06/06 14:24:59;;;;;;;;;;;;;;;;;;5071838;28;19920;-74
2023/06/06 14:27:24;;;;;;;;;;;;;;;;;;5057505;28;19916;-74
2023/06/06 14:29:49;;;;;;;;;;;;;;;;;;5068473;28;19947;-73
2023/06/06 14:32:15;;;;;;;;;;;;;;;;;;5067631;28;20003;-74
2023/06/06 14:34:41;;;;;;;;;;;;;;;;;;5068427;28;19912;-74
2023/06/06 14:37:06;;;;;;;;;;;;;;;;;;5067929;28;20380;-73
2023/06/06 14:39:31;;;;;;;;;;;;;;;;;;5067591;28;20663;-71
2023/06/06 14:41:57;;;;;;;;;;;;;;;;;;5068015;28;19924;-73
2023/06/06 14:44:24;;;;;;;;;;;;;;;;;;5067309;28;20007;-72
2023/06/06 14:46:49;;;;;;;;;;;;;;;;;;5064623;28;19912;-73
2023/06/06 14:49:14;;;;;;;;;;;;;;;;;;5050168;28;19915;-73
2023/06/06 14:51:39;;;;;;;;;;;;;;;;;;5065529;28;19920;-74
2023/06/06 14:54:05;;;;;;;;;;;;;;;;;;5067031;28;19916;-73
2023/06/06 14:56:30;;;;;;;;;;;;;;;;;;5063264;28;19913;-72
2023/06/06 14:58:55;;;;;;;;;;;;;;;;;;5066568;28;19916;-73
2023/06/06 15:01:22;;;;;;;;;;;;;;;;;;5068038;28;20383;-71
2023/06/06 15:03:50;;;;;;;;;;;;;;;;;;5069363;28;19920;-71
2023/06/06 15:06:15;;;;;;;;;;;;;;;;;;5071345;28;19920;-71
2023/06/06 15:08:41;;;;;;;;;;;;;;;;;;5070899;28;19916;-73
2023/06/06 15:11:06;;;;;;;;;;;;;;;;;;5055486;28;19924;-73
2023/06/06 15:13:32;;;;;;;;;;;;;;;;;;5073329;28;20089;-72
2023/06/06 15:15:57;;;;;;;;;;;;;;;;;;5070517;28;19969;-72
2023/06/06 15:18:23;;;;;;;;;;;;;;;;;;5070923;28;19912;-72
2023/06/06 15:20:48;;;;;;;;;;;;;;;;;;5069431;28;19920;-72
2023/06/06 15:23:14;;;;;;;;;;;;;;;;;;5059989;28;19913;-73
2023/06/06 15:25:39;;;;;;;;;;;;;;;;;;5052223;28;20481;-72
2023/06/06 15:28:05;;;;;;;;;;;;;;;;;;5069029;28;20018;-73
2023/06/06 15:30:30;;;;;;;;;;;;;;;;;;5071234;28;19932;-72
2023/06/06 15:32:55;;;;;;;;;;;;;;;;;;5072104;28;19959;-72
2023/06/06 15:35:21;;;;;;;;;;;;;;;;;;5072807;28;19912;-71
2023/06/06 15:37:46;;;;;;;;;;;;;;;;;;5070772;28;19916;-71
2023/06/06 15:40:11;;;;;;;;;;;;;;;;;;5070476;28;20271;-71
2023/06/06 15:42:36;;;;;;;;;;;;;;;;;;5070824;28;19912;-71
2023/06/06 15:45:02;;;;;;;;;;;;;;;;;;5070305;28;20244;-73
2023/06/06 15:47:28;;;;;;;;;;;;;;;;;;5068414;28;20359;-72
2023/06/06 15:49:53;;;;;;;;;;;;;;;;;;5068665;28;19912;-72
2023/06/06 15:52:18;;;;;;;;;;;;;;;;;;5070454;28;20247;-72
2023/06/06 15:54:44;;;;;;;;;;;;;;;;;;5070172;28;19948;-73
2023/06/06 15:57:09;;;;;;;;;;;;;;;;;;5086117;28;19908;-73
2023/06/06 15:59:34;;;;;;;;;;;;;;;;;;5071031;28;19919;-72
2023/06/06 16:01:59;;;;;;;;;;;;;;;;;;5069995;28;19944;-74
2023/06/06 16:04:25;;;;;;;;;;;;;;;;;;5070731;28;19962;-71
2023/06/06 16:06:50;;;;;;;;;;;;;;;;;;5065666;28;19925;-73
2023/06/06 16:09:16;;;;;;;;;;;;;;;;;;5058582;28;19912;-71
2023/06/06 16:11:41;;;;;;;;;;;;;;;;;;5058695;28;20348;-72
2023/06/06 16:14:06;;;;;;;;;;;;;;;;;;5058834;28;20383;-72
2023/06/06 16:16:31;;;;;;;;;;;;;;;;;;5049601;28;19923;-73
2023/06/06 16:18:57;;;;;;;;;;;;;;;;;;5051021;28;19917;-70
2023/06/06 16:21:22;;;;;;;;;;;;;;;;;;5053788;28;19938;-72
2023/06/06 16:23:48;;;;;;;;;;;;;;;;;;5073609;28;19919;-72
2023/06/06 16:26:14;;;;;;;;;;;;;;;;;;5069738;28;19913;-73
2023/06/06 16:28:39;;;;;;;;;;;;;;;;;;5070435;28;20272;-71
2023/06/06 16:31:04;;;;;;;;;;;;;;;;;;5069568;28;20367;-70
2023/06/06 16:33:30;;;;;;;;;;;;;;;;;;5070114;28;19919;-71
2023/06/06 16:35:55;;;;;;;;;;;;;;;;;;5067137;28;19917;-70